createdAt,value
2018-01-13T00:00:27.515Z,32.03
2018-01-13T00:02:55.204Z,30.53
2018-01-13T00:05:22.886Z,31.40
2018-01-13T00:07:50.567Z,30.13
2018-01-13T00:10:19.458Z,31.47
2018-01-13T00:12:47.139Z,31.63
2018-01-13T00:15:14.790Z,31.33
2018-01-13T00:17:42.495Z,33.47
2018-01-13T00:20:10.197Z,27.73
2018-01-13T00:22:38.705Z,29.03
2018-01-13T00:25:06.369Z,30.67
2018-01-13T00:27:34.060Z,32.27
2018-01-13T00:30:02.535Z,31.00
2018-01-13T00:32:30.223Z,32.57
2018-01-13T00:34:58.647Z,31.00
2018-01-13T00:37:26.301Z,30.13
2018-01-13T00:39:55.134Z,30.40
2018-01-13T00:42:22.789Z,31.20
2018-01-13T00:44:50.450Z,29.47
2018-01-13T00:47:18.123Z,29.20
2018-01-13T00:49:45.776Z,31.13
2018-01-13T00:52:19.313Z,29.93
2018-01-13T00:54:47.002Z,31.27
2018-01-13T00:57:14.695Z,29.57
2018-01-13T00:59:43.358Z,29.80
2018-01-13T01:02:11.033Z,32.23
2018-01-13T01:04:38.706Z,30.87
2018-01-13T01:07:06.362Z,31.70
2018-01-13T01:09:34.048Z,30.77
2018-01-13T01:12:01.718Z,32.17
2018-01-13T01:14:29.446Z,31.43
2018-01-13T01:16:57.093Z,30.93
2018-01-13T01:19:24.781Z,31.07
2018-01-13T01:21:52.438Z,28.83
2018-01-13T01:24:20.097Z,28.80
2018-01-13T01:26:47.743Z,30.53
2018-01-13T01:29:16.360Z,32.20
2018-01-13T01:31:43.995Z,29.83
2018-01-13T01:34:11.671Z,29.13
2018-01-13T01:36:39.368Z,30.97
2018-01-13T01:39:07.053Z,29.33
2018-01-13T01:41:34.744Z,27.13
2018-01-13T01:44:02.421Z,29.17
2018-01-13T01:46:30.109Z,31.90
2018-01-13T01:48:57.774Z,28.60
2018-01-13T01:51:26.389Z,32.07
2018-01-13T01:53:54.857Z,30.30
2018-01-13T01:56:22.549Z,30.17
2018-01-13T01:58:50.247Z,30.47
2018-01-13T02:01:17.957Z,28.67
2018-01-13T02:03:45.607Z,30.37
2018-01-13T02:06:13.318Z,28.43
2018-01-13T02:08:45.497Z,28.20
2018-01-13T02:11:18.953Z,28.27
2018-01-13T02:13:47.026Z,30.57
2018-01-13T02:16:15.473Z,28.10
2018-01-13T02:18:43.141Z,30.10
2018-01-13T02:21:10.807Z,29.97
2018-01-13T02:23:38.481Z,28.63
2018-01-13T02:26:06.180Z,30.17
2018-01-13T02:28:33.822Z,28.67
2018-01-13T02:31:02.462Z,28.07
2018-01-13T02:33:30.107Z,29.87
2018-01-13T02:35:57.783Z,28.10
2018-01-13T02:38:25.460Z,28.23
2018-01-13T02:40:53.139Z,30.07
2018-01-13T02:43:21.013Z,30.67
2018-01-13T02:45:48.662Z,29.43
2018-01-13T02:48:16.342Z,28.27
2018-01-13T02:50:44.027Z,28.20
2018-01-13T02:53:11.699Z,30.80
2018-01-13T02:55:39.368Z,28.90
2018-01-13T02:58:07.447Z,28.70
2018-01-13T03:00:36.191Z,25.77
2018-01-13T03:03:03.869Z,25.00
2018-01-13T03:05:31.489Z,28.23
2018-01-13T03:07:59.159Z,26.20
2018-01-13T03:10:26.825Z,25.50
2018-01-13T03:12:54.988Z,27.03
2018-01-13T03:15:22.664Z,26.67
2018-01-13T03:17:50.361Z,28.10
2018-01-13T03:20:18.063Z,27.23
2018-01-13T03:22:45.705Z,26.90
2018-01-13T03:25:13.408Z,23.63
2018-01-13T03:27:41.087Z,26.10
2018-01-13T03:30:09.677Z,26.67
2018-01-13T03:32:37.344Z,26.03
2018-01-13T03:35:05.013Z,26.43
2018-01-13T03:37:32.704Z,25.33
2018-01-13T03:40:00.386Z,24.07
2018-01-13T03:42:28.042Z,26.80
2018-01-13T03:44:55.756Z,24.87
2018-01-13T03:47:23.392Z,24.43
2018-01-13T03:49:51.069Z,24.70
2018-01-13T03:52:18.716Z,25.17
2018-01-13T03:54:46.408Z,24.23
2018-01-13T03:57:14.099Z,24.60
2018-01-13T03:59:43.749Z,25.47
2018-01-13T04:02:11.464Z,25.50
2018-01-13T04:04:39.896Z,24.23
2018-01-13T04:07:07.595Z,22.63
2018-01-13T04:09:35.272Z,22.30
2018-01-13T04:12:02.908Z,24.60
2018-01-13T04:14:30.601Z,24.43
2018-01-13T04:16:59.018Z,23.70
2018-01-13T04:19:26.638Z,24.57
2018-01-13T04:21:54.283Z,24.30
2018-01-13T04:24:21.955Z,24.43
2018-01-13T04:26:49.662Z,25.20
2018-01-13T04:29:18.511Z,25.87
2018-01-13T04:31:46.196Z,23.33
2018-01-13T04:34:14.660Z,22.30
2018-01-13T04:36:42.386Z,24.67
2018-01-13T04:39:10.092Z,23.67
2018-01-13T04:41:38.548Z,24.03
2018-01-13T04:44:06.254Z,23.63
2018-01-13T04:46:34.699Z,23.73
2018-01-13T04:49:02.369Z,24.50
2018-01-13T04:51:30.030Z,24.87
2018-01-13T04:53:57.703Z,23.33
2018-01-13T04:56:25.373Z,23.97
2018-01-13T04:58:53.018Z,24.50
2018-01-13T05:01:20.714Z,22.70
2018-01-13T05:03:48.370Z,23.03
2018-01-13T05:06:16.845Z,23.23
2018-01-13T05:08:44.554Z,23.63
2018-01-13T05:11:12.251Z,23.23
2018-01-13T05:13:39.926Z,23.00
2018-01-13T05:16:07.635Z,23.13
2018-01-13T05:18:35.330Z,23.17
2018-01-13T05:21:04.017Z,23.27
2018-01-13T05:23:31.705Z,23.77
2018-01-13T05:25:59.409Z,22.10
2018-01-13T05:28:27.054Z,23.07
2018-01-13T05:30:54.730Z,23.97
2018-01-13T05:33:22.397Z,22.80
2018-01-13T05:35:50.106Z,24.40
2018-01-13T05:38:17.755Z,22.73
2018-01-13T05:40:45.462Z,22.80
2018-01-13T05:43:13.942Z,21.90
2018-01-13T05:45:41.607Z,22.63
2018-01-13T05:48:09.264Z,23.23
2018-01-13T05:50:38.195Z,23.17
2018-01-13T05:53:05.841Z,23.00
2018-01-13T05:55:34.309Z,23.27
2018-01-13T05:58:01.977Z,23.67
2018-01-13T06:00:30.424Z,21.47
2018-01-13T06:02:58.113Z,21.67
2018-01-13T06:05:26.592Z,21.87
2018-01-13T06:07:54.283Z,22.53
2018-01-13T06:10:21.982Z,22.53
2018-01-13T06:12:49.682Z,22.13
2018-01-13T06:15:17.382Z,21.60
2018-01-13T06:17:45.052Z,23.27
2018-01-13T06:20:13.659Z,22.97
2018-01-13T06:22:41.351Z,24.40
2018-01-13T06:25:09.030Z,22.27
2018-01-13T06:27:36.734Z,23.20
2018-01-13T06:30:04.468Z,24.43
2018-01-13T06:32:32.904Z,22.57
2018-01-13T06:35:00.601Z,25.03
2018-01-13T06:37:29.021Z,24.23
2018-01-13T06:39:56.972Z,23.53
2018-01-13T06:42:24.670Z,22.97
2018-01-13T06:44:52.330Z,23.73
2018-01-13T06:47:20.047Z,24.83
2018-01-13T06:49:49.450Z,23.83
2018-01-13T06:52:17.095Z,24.20
2018-01-13T06:54:44.776Z,23.93
2018-01-13T06:57:12.480Z,23.57
2018-01-13T06:59:40.274Z,24.73
2018-01-13T07:02:07.958Z,24.70
2018-01-13T07:04:35.653Z,24.93
2018-01-13T07:07:03.295Z,25.60
2018-01-13T07:09:30.953Z,24.00
2018-01-13T07:11:58.618Z,24.13
2018-01-13T07:14:27.134Z,24.80
2018-01-13T07:16:54.813Z,24.57
2018-01-13T07:19:23.382Z,22.40
2018-01-13T07:21:51.068Z,21.67
2018-01-13T07:24:18.775Z,24.50
2018-01-13T07:26:46.461Z,23.33
2018-01-13T07:29:14.912Z,23.73
2018-01-13T07:31:47.640Z,22.87
2018-01-13T07:34:15.722Z,24.17
2018-01-13T07:36:43.366Z,23.13
2018-01-13T07:39:11.027Z,24.57
2018-01-13T07:41:38.712Z,22.43
2018-01-13T07:44:06.369Z,22.50
2018-01-13T07:46:34.052Z,23.50
2018-01-13T07:49:01.711Z,23.53
2018-01-13T07:51:29.378Z,22.90
2018-01-13T07:53:57.068Z,24.07
2018-01-13T07:56:24.721Z,22.40
2018-01-13T07:58:52.378Z,22.37
2018-01-13T08:01:21.061Z,21.93
2018-01-13T08:03:48.730Z,23.20
2018-01-13T08:06:16.453Z,23.60
2018-01-13T08:08:44.203Z,22.57
2018-01-13T08:11:11.926Z,22.33
2018-01-13T08:13:39.607Z,23.37
2018-01-13T08:16:07.280Z,21.83
2018-01-13T08:18:34.983Z,23.70
2018-01-13T08:21:05.901Z,21.13
2018-01-13T08:23:33.714Z,22.13
2018-01-13T08:26:01.386Z,21.53
2018-01-13T08:28:29.078Z,21.27
2018-01-13T08:30:58.784Z,21.07
2018-01-13T08:33:26.483Z,20.73
2018-01-13T08:35:54.265Z,21.27
2018-01-13T08:38:22.022Z,21.50
2018-01-13T08:40:49.718Z,19.53
2018-01-13T08:43:17.426Z,20.83
2018-01-13T08:45:45.083Z,20.93
2018-01-13T08:48:13.544Z,20.93
2018-01-13T08:50:41.218Z,22.37
2018-01-13T08:53:09.638Z,21.50
2018-01-13T08:55:37.304Z,20.97
2018-01-13T08:58:05.803Z,21.70
2018-01-13T09:00:34.498Z,21.50
2018-01-13T09:03:02.202Z,21.07
2018-01-13T09:05:30.671Z,21.07
2018-01-13T09:07:58.382Z,21.23
2018-01-13T09:10:26.083Z,20.10
2018-01-13T09:12:53.756Z,20.50
2018-01-13T09:15:21.434Z,21.53
2018-01-13T09:17:49.125Z,20.20
2018-01-13T09:20:16.857Z,21.23
2018-01-13T09:22:44.549Z,20.20
2018-01-13T09:25:17.854Z,21.67
2018-01-13T09:27:45.886Z,19.63
2018-01-13T09:30:13.652Z,20.30
2018-01-13T09:32:41.322Z,20.30
2018-01-13T09:35:09.001Z,21.33
2018-01-13T09:37:37.465Z,20.53
2018-01-13T09:40:05.140Z,19.67
2018-01-13T09:42:33.602Z,20.83
2018-01-13T09:45:01.263Z,19.90
2018-01-13T09:47:28.954Z,21.30
2018-01-13T09:49:57.834Z,17.57
2018-01-13T09:52:25.807Z,19.40
2018-01-13T09:54:54.277Z,20.03
2018-01-13T09:57:21.982Z,21.43
2018-01-13T09:59:49.890Z,17.97
2018-01-13T10:02:17.649Z,20.30
2018-01-13T10:04:45.327Z,21.27
2018-01-13T10:07:12.990Z,21.13
2018-01-13T10:09:40.656Z,21.30
2018-01-13T10:12:08.383Z,20.23
2018-01-13T10:14:36.057Z,20.87
2018-01-13T10:17:03.779Z,20.37
2018-01-13T10:19:31.598Z,21.77
2018-01-13T10:21:59.251Z,21.33
2018-01-13T10:24:26.975Z,20.77
2018-01-13T10:26:54.718Z,22.10
2018-01-13T10:29:22.425Z,21.87
2018-01-13T10:31:50.125Z,21.17
2018-01-13T10:34:17.834Z,20.87
2018-01-13T10:36:45.549Z,21.43
2018-01-13T10:39:13.240Z,21.77
2018-01-13T10:41:40.912Z,21.63
2018-01-13T10:44:08.614Z,22.37
2018-01-13T10:46:36.329Z,21.17
2018-01-13T10:49:04.003Z,20.17
2018-01-13T10:51:32.998Z,20.77
2018-01-13T10:54:00.730Z,21.77
2018-01-13T10:56:28.820Z,21.87
2018-01-13T10:58:56.506Z,20.43
2018-01-13T11:01:28.394Z,21.50
2018-01-13T11:03:56.274Z,20.60
2018-01-13T11:06:23.960Z,21.13
2018-01-13T11:08:51.648Z,20.17
2018-01-13T11:11:19.384Z,21.93
2018-01-13T11:13:47.085Z,19.73
2018-01-13T11:16:14.778Z,21.73
2018-01-13T11:18:42.491Z,22.03
2018-01-13T11:21:10.140Z,21.77
2018-01-13T11:23:37.832Z,22.03
2018-01-13T11:26:10.742Z,21.87
2018-01-13T11:28:38.783Z,20.87
2018-01-13T11:31:06.616Z,23.63
2018-01-13T11:33:34.311Z,21.17
2018-01-13T11:36:02.030Z,21.93
2018-01-13T11:38:29.718Z,21.83
2018-01-13T11:40:57.408Z,22.60
2018-01-13T11:43:25.135Z,22.97
2018-01-13T11:45:52.862Z,22.73
2018-01-13T11:48:21.311Z,23.43
2018-01-13T11:50:48.957Z,22.47
2018-01-13T11:53:16.662Z,23.33
2018-01-13T11:55:44.299Z,23.23
2018-01-13T11:58:11.940Z,22.87
2018-01-13T12:00:39.863Z,22.70
2018-01-13T12:03:07.546Z,22.77
2018-01-13T12:05:35.269Z,22.10
2018-01-13T12:08:03.731Z,22.17
2018-01-13T12:10:31.430Z,22.33
2018-01-13T12:12:59.845Z,23.20
2018-01-13T12:15:27.552Z,23.53
2018-01-13T12:17:55.250Z,23.10
2018-01-13T12:20:22.990Z,22.47
2018-01-13T12:22:50.661Z,23.03
2018-01-13T12:25:18.365Z,23.77
2018-01-13T12:27:46.029Z,22.53
2018-01-13T12:30:13.946Z,23.47
2018-01-13T12:32:41.634Z,23.07
2018-01-13T12:35:10.070Z,21.83
2018-01-13T12:37:37.751Z,22.93
2018-01-13T12:40:05.416Z,23.90
2018-01-13T12:42:33.105Z,22.97
2018-01-13T12:45:00.792Z,23.23
2018-01-13T12:47:28.474Z,24.20
2018-01-13T12:49:56.173Z,23.63
2018-01-13T12:52:23.875Z,23.70
2018-01-13T12:54:51.513Z,22.97
2018-01-13T12:57:19.980Z,21.50
2018-01-13T12:59:48.367Z,21.63
2018-01-13T13:02:16.067Z,22.20
2018-01-13T13:04:43.760Z,21.77
2018-01-13T13:07:11.476Z,21.60
2018-01-13T13:09:39.194Z,21.00
2018-01-13T13:12:06.919Z,21.40
2018-01-13T13:14:34.616Z,21.73
2018-01-13T13:17:02.277Z,21.17
2018-01-13T13:19:29.998Z,21.40
2018-01-13T13:21:57.677Z,19.83
2018-01-13T13:24:25.382Z,21.23
2018-01-13T13:26:53.068Z,21.20
2018-01-13T13:29:20.903Z,21.37
2018-01-13T13:31:48.559Z,20.70
2018-01-13T13:34:16.263Z,20.27
2018-01-13T13:36:43.976Z,20.30
2018-01-13T13:39:11.670Z,19.87
2018-01-13T13:41:39.356Z,20.73
2018-01-13T13:44:07.081Z,20.90
2018-01-13T13:46:34.749Z,20.83
2018-01-13T13:49:02.434Z,20.60
2018-01-13T13:51:30.156Z,20.33
2018-01-13T13:53:57.873Z,19.97
2018-01-13T13:56:25.602Z,20.13
2018-01-13T13:58:53.280Z,19.83
2018-01-13T14:01:28.593Z,20.43
2018-01-13T14:03:48.739Z,20.17
2018-01-13T14:06:16.475Z,20.80
2018-01-13T14:08:44.160Z,19.90
2018-01-13T14:11:11.911Z,20.07
2018-01-13T14:13:39.601Z,20.87
2018-01-13T14:16:07.241Z,20.40
2018-01-13T14:18:34.938Z,20.40
2018-01-13T14:21:03.514Z,21.50
2018-01-13T14:23:31.178Z,20.70
2018-01-13T14:25:59.630Z,21.23
2018-01-13T14:28:27.310Z,21.30
2018-01-13T14:30:55.010Z,20.80
2018-01-13T14:33:22.653Z,20.70
2018-01-13T14:35:50.254Z,20.90
2018-01-13T14:38:17.955Z,20.70
2018-01-13T14:40:45.644Z,20.67
2018-01-13T14:43:13.377Z,21.03
2018-01-13T14:45:41.058Z,20.93
2018-01-13T14:48:08.758Z,19.63
2018-01-13T14:50:36.527Z,20.07
2018-01-13T14:53:04.212Z,21.60
2018-01-13T14:55:31.917Z,21.80
2018-01-13T14:57:59.576Z,22.47
2018-01-13T15:00:28.077Z,21.83
2018-01-13T15:02:55.763Z,21.43
2018-01-13T15:05:23.465Z,21.67
2018-01-13T15:07:51.168Z,21.53
2018-01-13T15:10:19.263Z,20.67
2018-01-13T15:12:46.946Z,20.03
2018-01-13T15:15:14.650Z,21.50
2018-01-13T15:17:42.336Z,21.30
2018-01-13T15:20:11.290Z,22.50
2018-01-13T15:22:39.006Z,21.83
2018-01-13T15:25:06.725Z,21.17
2018-01-13T15:27:34.384Z,21.57
2018-01-13T15:30:02.055Z,21.47
2018-01-13T15:32:29.777Z,21.33
2018-01-13T15:34:57.448Z,22.47
2018-01-13T15:37:25.139Z,22.70
2018-01-13T15:39:52.910Z,22.07
2018-01-13T15:42:20.626Z,22.53
2018-01-13T15:44:48.238Z,21.57
2018-01-13T15:47:15.935Z,21.67
2018-01-13T15:49:44.796Z,21.43
2018-01-13T15:52:12.448Z,21.73
2018-01-13T15:54:40.133Z,21.80
2018-01-13T15:57:07.874Z,22.73
2018-01-13T15:59:35.558Z,20.10
2018-01-13T16:02:03.253Z,22.77
2018-01-13T16:04:30.937Z,22.57
2018-01-13T16:06:59.410Z,24.00
2018-01-13T16:09:27.100Z,23.87
2018-01-13T16:11:54.759Z,23.87
2018-01-13T16:14:22.412Z,24.63
2018-01-13T16:16:50.148Z,24.23
2018-01-13T16:19:17.908Z,25.77
2018-01-13T16:21:45.605Z,26.93
2018-01-13T16:24:13.286Z,26.53
2018-01-13T16:26:40.978Z,27.10
2018-01-13T16:29:08.625Z,27.80
2018-01-13T16:31:36.320Z,27.67
2018-01-13T16:34:03.997Z,29.23
2018-01-13T16:36:31.679Z,28.40
2018-01-13T16:38:59.305Z,29.47
2018-01-13T16:41:27.231Z,29.33
2018-01-13T16:43:54.926Z,28.93
2018-01-13T16:46:22.581Z,29.30
2018-01-13T16:48:50.318Z,27.73
2018-01-13T16:51:18.031Z,29.90
2018-01-13T16:53:45.707Z,29.00
2018-01-13T16:56:13.358Z,29.03
2018-01-13T16:58:41.057Z,30.33
2018-01-13T17:01:08.815Z,29.53
2018-01-13T17:03:36.481Z,29.83
2018-01-13T17:06:04.192Z,30.57
2018-01-13T17:08:31.889Z,30.77
2018-01-13T17:10:59.838Z,30.00
2018-01-13T17:13:27.464Z,30.87
2018-01-13T17:15:55.121Z,31.40
2018-01-13T17:18:22.833Z,32.37
2018-01-13T17:20:50.691Z,31.70
2018-01-13T17:23:18.596Z,29.67
2018-01-13T17:25:46.293Z,30.67
2018-01-13T17:28:13.964Z,30.33
2018-01-13T17:30:41.624Z,30.63
2018-01-13T17:33:09.464Z,31.23
2018-01-13T17:35:37.104Z,30.73
2018-01-13T17:38:04.782Z,31.37
2018-01-13T17:40:33.588Z,30.93
2018-01-13T17:43:01.303Z,33.47
2018-01-13T17:45:29.792Z,31.93
2018-01-13T17:47:57.478Z,31.47
2018-01-13T17:50:25.152Z,31.90
2018-01-13T17:52:53.595Z,31.20
2018-01-13T17:55:22.044Z,32.53
2018-01-13T17:57:49.760Z,30.80
2018-01-13T18:00:17.430Z,31.57
2018-01-13T18:02:45.118Z,32.50
2018-01-13T18:05:12.781Z,32.40
2018-01-13T18:07:40.474Z,31.57
2018-01-13T18:10:09.135Z,30.97
2018-01-13T18:12:36.829Z,30.97
2018-01-13T18:15:04.601Z,29.93
2018-01-13T18:17:32.291Z,30.13
2018-01-13T18:19:59.998Z,29.80
2018-01-13T18:22:27.725Z,31.10
2018-01-13T18:24:55.373Z,29.60
2018-01-13T18:27:23.784Z,32.70
2018-01-13T18:29:51.447Z,31.97
2018-01-13T18:32:19.127Z,32.67
2018-01-13T18:34:46.830Z,31.87
2018-01-13T18:37:15.301Z,32.73
2018-01-13T18:39:45.198Z,32.80
2018-01-13T18:42:13.001Z,33.00
2018-01-13T18:44:41.996Z,32.93
2018-01-13T18:47:09.620Z,33.83
2018-01-13T18:49:37.314Z,35.87
2018-01-13T18:52:04.966Z,34.27
2018-01-13T18:54:32.640Z,35.90
2018-01-13T18:57:01.134Z,34.90
2018-01-13T18:59:29.594Z,34.27
2018-01-13T19:01:57.272Z,33.33
2018-01-13T19:04:24.945Z,33.80
2018-01-13T19:06:53.413Z,34.70
2018-01-13T19:09:22.120Z,35.57
2018-01-13T19:11:49.798Z,33.43
2018-01-13T19:14:17.489Z,33.30
2018-01-13T19:16:45.178Z,34.27
2018-01-13T19:19:12.849Z,33.43
2018-01-13T19:21:40.513Z,32.53
2018-01-13T19:24:08.208Z,32.23
2018-01-13T19:26:35.888Z,32.67
2018-01-13T19:29:03.596Z,31.67
2018-01-13T19:31:31.291Z,31.63
2018-01-13T19:34:00.304Z,31.03
2018-01-13T19:36:28.005Z,30.77
2018-01-13T19:38:55.731Z,30.03
2018-01-13T19:41:23.933Z,30.60
2018-01-13T19:43:51.605Z,31.47
2018-01-13T19:46:19.296Z,29.57
2018-01-13T19:48:52.318Z,29.20
2018-01-13T19:51:20.310Z,30.93
2018-01-13T19:53:47.993Z,31.80
2018-01-13T19:56:15.696Z,29.70
2018-01-13T19:58:44.227Z,30.67
2018-01-13T20:01:11.902Z,29.57
2018-01-13T20:03:39.601Z,29.53
2018-01-13T20:06:08.037Z,28.97
2018-01-13T20:08:35.728Z,30.98
2018-01-13T20:11:03.375Z,28.33
2018-01-13T20:13:31.064Z,28.90
2018-01-13T20:15:59.558Z,29.03
2018-01-13T20:18:27.254Z,29.80
2018-01-13T20:20:55.864Z,30.93
2018-01-13T20:23:23.548Z,29.47
2018-01-13T20:25:51.257Z,28.83
2018-01-13T20:28:18.945Z,29.87
2018-01-13T20:30:46.639Z,29.27
2018-01-13T20:33:14.362Z,28.77
2018-01-13T20:35:42.048Z,29.20
2018-01-13T20:38:09.704Z,29.10
2018-01-13T20:40:37.356Z,27.67
2018-01-13T20:43:05.022Z,26.57
2018-01-13T20:45:32.701Z,27.00
2018-01-13T20:48:00.422Z,27.13
2018-01-13T20:50:28.994Z,24.50
2018-01-13T20:52:57.418Z,23.60
2018-01-13T20:55:25.048Z,23.97
2018-01-13T20:57:52.758Z,22.60
2018-01-13T21:00:20.396Z,23.90
2018-01-13T21:02:48.110Z,23.17
2018-01-13T21:05:15.790Z,23.07
2018-01-13T21:07:43.456Z,21.83
2018-01-13T21:10:11.151Z,21.70
2018-01-13T21:12:38.831Z,22.63
2018-01-13T21:15:06.525Z,21.47
2018-01-13T21:17:34.255Z,20.10
2018-01-13T21:20:03.147Z,19.67
2018-01-13T21:22:30.854Z,19.87
2018-01-13T21:24:59.295Z,20.23
2018-01-13T21:27:27.022Z,19.27
2018-01-13T21:29:55.502Z,18.57
2018-01-13T21:32:23.949Z,18.67
2018-01-13T21:34:51.625Z,19.07
2018-01-13T21:37:19.334Z,18.47
2018-01-13T21:39:46.986Z,18.80
2018-01-13T21:42:14.691Z,18.87
2018-01-13T21:44:42.386Z,19.33
2018-01-13T21:47:10.082Z,20.00
2018-01-13T21:49:37.819Z,18.73
2018-01-13T21:52:06.205Z,17.97
2018-01-13T21:54:34.577Z,19.53
2018-01-13T21:57:03.021Z,20.27
2018-01-13T21:59:30.715Z,19.10
2018-01-13T22:01:58.432Z,19.23
2018-01-13T22:04:26.120Z,18.30
2018-01-13T22:06:53.792Z,17.93
2018-01-13T22:09:21.458Z,17.93
2018-01-13T22:11:49.268Z,17.30
2018-01-13T22:14:17.347Z,18.70
2018-01-13T22:16:45.072Z,18.23
2018-01-13T22:19:12.921Z,19.70
2018-01-13T22:21:40.611Z,19.07
2018-01-13T22:24:09.074Z,19.13
2018-01-13T22:26:36.821Z,18.37
2018-01-13T22:29:04.507Z,19.23
2018-01-13T22:31:32.192Z,18.23
2018-01-13T22:33:59.909Z,18.73
2018-01-13T22:36:27.625Z,17.80
2018-01-13T22:38:55.304Z,18.50
2018-01-13T22:41:23.126Z,17.67
2018-01-13T22:43:50.771Z,16.83
2018-01-13T22:46:18.458Z,17.80
2018-01-13T22:48:46.142Z,17.07
2018-01-13T22:51:14.635Z,17.50
2018-01-13T22:53:42.324Z,17.50
2018-01-13T22:56:10.042Z,16.63
2018-01-13T22:58:37.732Z,16.47
2018-01-13T23:01:05.439Z,17.20
2018-01-13T23:03:33.126Z,16.83
2018-01-13T23:06:00.854Z,16.30
2018-01-13T23:08:28.526Z,16.50
2018-01-13T23:10:56.265Z,16.80
2018-01-13T23:13:23.981Z,17.37
2018-01-13T23:15:51.677Z,17.07
2018-01-13T23:18:19.374Z,16.30
2018-01-13T23:20:47.071Z,17.70
2018-01-13T23:23:14.761Z,18.37
2018-01-13T23:25:43.229Z,17.00
2018-01-13T23:28:10.908Z,18.03
2018-01-13T23:30:39.385Z,17.17
2018-01-13T23:33:07.080Z,17.93
2018-01-13T23:35:34.786Z,17.73
2018-01-13T23:38:02.490Z,18.50
2018-01-13T23:40:30.407Z,18.27
2018-01-13T23:42:58.091Z,18.50
2018-01-13T23:45:25.725Z,18.73
2018-01-13T23:47:53.402Z,19.07
2018-01-13T23:50:21.097Z,18.17
2018-01-13T23:52:49.564Z,19.03
2018-01-13T23:55:17.217Z,18.27
2018-01-13T23:57:44.912Z,18.73
